sensor_id;sensor_type;location;lat;lon;timestamp;temperature;humidity
77039;DHT22;65970;50.476;4.840;2023-03-01T00:04:41;2.70;32.60
77039;DHT22;65970;50.476;4.840;2023-03-01T00:09:42;2.70;31.40
77039;DHT22;65970;50.476;4.840;2023-03-01T00:14:42;2.70;32.80
77039;DHT22;65970;50.476;4.840;2023-03-01T00:19:43;2.70;31.90
77039;DHT22;65970;50.476;4.840;2023-03-01T00:24:44;2.60;30.90
77039;DHT22;65970;50.476;4.840;2023-03-01T00:29:44;2.70;32.50
77039;DHT22;65970;50.476;4.840;2023-03-01T00:34:45;2.60;31.10
77039;DHT22;65970;50.476;4.840;2023-03-01T00:39:46;2.70;30.60
77039;DHT22;65970;50.476;4.840;2023-03-01T00:44:47;2.70;30.40
77039;DHT22;65970;50.476;4.840;2023-03-01T00:49:48;2.70;29.70
77039;DHT22;65970;50.476;4.840;2023-03-01T00:54:51;2.60;31.50
77039;DHT22;65970;50.476;4.840;2023-03-01T00:59:52;2.60;30.80
77039;DHT22;65970;50.476;4.840;2023-03-01T01:04:52;2.70;31.80
77039;DHT22;65970;50.476;4.840;2023-03-01T01:09:53;2.60;30.40
77039;DHT22;65970;50.476;4.840;2023-03-01T01:14:53;2.60;29.60
77039;DHT22;65970;50.476;4.840;2023-03-01T01:19:54;2.60;31.60
77039;DHT22;65970;50.476;4.840;2023-03-01T01:24:54;2.50;31.80
77039;DHT22;65970;50.476;4.840;2023-03-01T01:29:55;2.50;32.10
77039;DHT22;65970;50.476;4.840;2023-03-01T01:34:55;2.50;30.50
77039;DHT22;65970;50.476;4.840;2023-03-01T01:40:00;2.50;29.80
77039;DHT22;65970;50.476;4.840;2023-03-01T01:50:27;2.40;31.00
77039;DHT22;65970;50.476;4.840;2023-03-01T01:55:28;2.40;30.00
77039;DHT22;65970;50.476;4.840;2023-03-01T02:00:29;2.40;29.80
77039;DHT22;65970;50.476;4.840;2023-03-01T02:10:34;2.30;31.60
77039;DHT22;65970;50.476;4.840;2023-03-01T02:15:36;2.20;31.40
77039;DHT22;65970;50.476;4.840;2023-03-01T02:26:28;2.20;31.70
77039;DHT22;65970;50.476;4.840;2023-03-01T02:31:31;2.20;30.00
77039;DHT22;65970;50.476;4.840;2023-03-01T02:36:45;2.20;29.90
77039;DHT22;65970;50.476;4.840;2023-03-01T02:41:50;2.30;29.90
77039;DHT22;65970;50.476;4.840;2023-03-01T02:46:54;2.20;30.40
77039;DHT22;65970;50.476;4.840;2023-03-01T02:52:26;2.20;30.20
77039;DHT22;65970;50.476;4.840;2023-03-01T02:57:29;2.20;29.70
77039;DHT22;65970;50.476;4.840;2023-03-01T03:02:30;2.10;31.40
77039;DHT22;65970;50.476;4.840;2023-03-01T03:07:32;2.10;34.30
77039;DHT22;65970;50.476;4.840;2023-03-01T03:12:32;1.90;33.00
77039;DHT22;65970;50.476;4.840;2023-03-01T03:17:33;1.90;31.90
77039;DHT22;65970;50.476;4.840;2023-03-01T03:22:33;1.90;32.90
77039;DHT22;65970;50.476;4.840;2023-03-01T03:27:34;1.90;32.10
77039;DHT22;65970;50.476;4.840;2023-03-01T03:32:36;1.90;32.00
77039;DHT22;65970;50.476;4.840;2023-03-01T03:37:38;1.90;33.00
77039;DHT22;65970;50.476;4.840;2023-03-01T03:42:39;1.90;31.70
77039;DHT22;65970;50.476;4.840;2023-03-01T03:47:39;2.00;30.90
77039;DHT22;65970;50.476;4.840;2023-03-01T03:52:40;1.90;30.80
77039;DHT22;65970;50.476;4.840;2023-03-01T03:57:41;1.90;31.50
77039;DHT22;65970;50.476;4.840;2023-03-01T04:02:42;1.90;31.70
77039;DHT22;65970;50.476;4.840;2023-03-01T04:07:44;1.80;32.60
77039;DHT22;65970;50.476;4.840;2023-03-01T04:12:45;1.80;33.60
77039;DHT22;65970;50.476;4.840;2023-03-01T04:17:46;1.70;33.70
77039;DHT22;65970;50.476;4.840;2023-03-01T04:22:47;1.70;33.20
77039;DHT22;65970;50.476;4.840;2023-03-01T04:27:47;1.60;33.70
77039;DHT22;65970;50.476;4.840;2023-03-01T04:32:48;1.60;34.10
77039;DHT22;65970;50.476;4.840;2023-03-01T04:37:49;1.60;32.60
77039;DHT22;65970;50.476;4.840;2023-03-01T04:42:49;1.70;33.60
77039;DHT22;65970;50.476;4.840;2023-03-01T04:47:50;1.60;34.80
77039;DHT22;65970;50.476;4.840;2023-03-01T04:52:51;1.60;32.40
77039;DHT22;65970;50.476;4.840;2023-03-01T04:57:52;1.60;33.30
77039;DHT22;65970;50.476;4.840;2023-03-01T05:02:57;1.50;34.80
77039;DHT22;65970;50.476;4.840;2023-03-01T05:08:04;1.60;33.00
77039;DHT22;65970;50.476;4.840;2023-03-01T05:13:05;1.50;33.90
77039;DHT22;65970;50.476;4.840;2023-03-01T05:18:05;1.40;34.40
77039;DHT22;65970;50.476;4.840;2023-03-01T05:23:06;1.40;36.00
77039;DHT22;65970;50.476;4.840;2023-03-01T05:28:11;1.30;34.40
77039;DHT22;65970;50.476;4.840;2023-03-01T05:33:11;1.30;34.80
77039;DHT22;65970;50.476;4.840;2023-03-01T05:38:13;1.40;33.30
77039;DHT22;65970;50.476;4.840;2023-03-01T05:43:15;1.40;33.00
77039;DHT22;65970;50.476;4.840;2023-03-01T05:48:15;1.40;33.20
77039;DHT22;65970;50.476;4.840;2023-03-01T05:53:19;1.40;32.50
77039;DHT22;65970;50.476;4.840;2023-03-01T05:58:20;1.30;32.70
77039;DHT22;65970;50.476;4.840;2023-03-01T06:03:20;1.30;33.00
77039;DHT22;65970;50.476;4.840;2023-03-01T06:08:21;1.20;35.10
77039;DHT22;65970;50.476;4.840;2023-03-01T06:13:22;1.20;33.70
77039;DHT22;65970;50.476;4.840;2023-03-01T06:18:22;1.10;34.80
77039;DHT22;65970;50.476;4.840;2023-03-01T06:23:23;1.10;37.10
77039;DHT22;65970;50.476;4.840;2023-03-01T06:28:24;1.00;35.50
77039;DHT22;65970;50.476;4.840;2023-03-01T06:33:25;1.00;35.60
77039;DHT22;65970;50.476;4.840;2023-03-01T06:38:25;1.00;36.40
77039;DHT22;65970;50.476;4.840;2023-03-01T06:43:26;0.90;36.80
77039;DHT22;65970;50.476;4.840;2023-03-01T06:48:26;0.90;36.40
77039;DHT22;65970;50.476;4.840;2023-03-01T06:53:28;1.00;35.60
77039;DHT22;65970;50.476;4.840;2023-03-01T06:58:29;1.00;35.70
77039;DHT22;65970;50.476;4.840;2023-03-01T07:03:29;1.00;36.50
77039;DHT22;65970;50.476;4.840;2023-03-01T07:08:30;0.90;37.00
77039;DHT22;65970;50.476;4.840;2023-03-01T07:13:31;1.00;37.60
77039;DHT22;65970;50.476;4.840;2023-03-01T07:18:32;1.00;37.80
77039;DHT22;65970;50.476;4.840;2023-03-01T07:23:33;1.00;38.70
77039;DHT22;65970;50.476;4.840;2023-03-01T07:28:34;1.00;39.00
77039;DHT22;65970;50.476;4.840;2023-03-01T07:33:34;1.10;40.40
77039;DHT22;65970;50.476;4.840;2023-03-01T07:38:35;1.20;41.70
77039;DHT22;65970;50.476;4.840;2023-03-01T07:43:35;1.20;41.40
77039;DHT22;65970;50.476;4.840;2023-03-01T07:48:36;1.30;41.70
77039;DHT22;65970;50.476;4.840;2023-03-01T07:53:36;1.40;41.80
77039;DHT22;65970;50.476;4.840;2023-03-01T07:58:39;1.40;41.60
77039;DHT22;65970;50.476;4.840;2023-03-01T08:03:40;1.50;42.70
77039;DHT22;65970;50.476;4.840;2023-03-01T08:08:41;1.50;43.70
77039;DHT22;65970;50.476;4.840;2023-03-01T08:13:43;1.50;42.30
77039;DHT22;65970;50.476;4.840;2023-03-01T08:18:43;1.60;43.10
77039;DHT22;65970;50.476;4.840;2023-03-01T08:23:44;1.70;43.70
77039;DHT22;65970;50.476;4.840;2023-03-01T08:28:45;1.80;43.10
77039;DHT22;65970;50.476;4.840;2023-03-01T08:33:47;1.90;43.60
77039;DHT22;65970;50.476;4.840;2023-03-01T08:38:48;2.00;43.40
77039;DHT22;65970;50.476;4.840;2023-03-01T08:43:49;2.00;42.40
77039;DHT22;65970;50.476;4.840;2023-03-01T08:48:50;2.10;43.10
77039;DHT22;65970;50.476;4.840;2023-03-01T08:53:51;2.10;43.30
77039;DHT22;65970;50.476;4.840;2023-03-01T08:58:51;2.30;43.50
77039;DHT22;65970;50.476;4.840;2023-03-01T09:03:52;2.40;42.30
77039;DHT22;65970;50.476;4.840;2023-03-01T09:08:52;2.40;42.40
77039;DHT22;65970;50.476;4.840;2023-03-01T09:13:53;2.50;42.50
77039;DHT22;65970;50.476;4.840;2023-03-01T09:18:54;2.60;42.70
77039;DHT22;65970;50.476;4.840;2023-03-01T09:23:56;2.70;42.70
77039;DHT22;65970;50.476;4.840;2023-03-01T09:28:57;2.90;41.70
77039;DHT22;65970;50.476;4.840;2023-03-01T09:33:57;2.90;41.40
77039;DHT22;65970;50.476;4.840;2023-03-01T09:38:58;3.00;40.80
77039;DHT22;65970;50.476;4.840;2023-03-01T09:44:03;3.10;40.80
77039;DHT22;65970;50.476;4.840;2023-03-01T09:49:20;3.20;41.00
77039;DHT22;65970;50.476;4.840;2023-03-01T10:10:28;3.80;39.20
77039;DHT22;65970;50.476;4.840;2023-03-01T10:15:41;4.00;39.70
77039;DHT22;65970;50.476;4.840;2023-03-01T10:20:59;4.20;40.00
77039;DHT22;65970;50.476;4.840;2023-03-01T10:26:19;4.50;38.50
77039;DHT22;65970;50.476;4.840;2023-03-01T10:31:27;4.90;36.90
77039;DHT22;65970;50.476;4.840;2023-03-01T10:36:33;5.20;35.50
77039;DHT22;65970;50.476;4.840;2023-03-01T10:41:33;5.40;35.90
77039;DHT22;65970;50.476;4.840;2023-03-01T10:46:40;5.50;35.80
77039;DHT22;65970;50.476;4.840;2023-03-01T10:51:45;5.70;34.20
77039;DHT22;65970;50.476;4.840;2023-03-01T10:56:48;5.80;34.40
77039;DHT22;65970;50.476;4.840;2023-03-01T11:02:17;6.00;34.90
77039;DHT22;65970;50.476;4.840;2023-03-01T11:07:18;6.20;34.60
77039;DHT22;65970;50.476;4.840;2023-03-01T11:12:20;6.60;33.40
77039;DHT22;65970;50.476;4.840;2023-03-01T11:17:26;6.70;33.90
77039;DHT22;65970;50.476;4.840;2023-03-01T11:22:27;7.00;33.20
77039;DHT22;65970;50.476;4.840;2023-03-01T11:27:32;7.20;31.90
77039;DHT22;65970;50.476;4.840;2023-03-01T11:32:38;7.50;31.30
77039;DHT22;65970;50.476;4.840;2023-03-01T11:37:50;7.90;31.40
77039;DHT22;65970;50.476;4.840;2023-03-01T11:59:03;8.80;27.80
77039;DHT22;65970;50.476;4.840;2023-03-01T12:15:11;9.30;26.10
77039;DHT22;65970;50.476;4.840;2023-03-01T12:57:41;10.70;20.00
77039;DHT22;65970;50.476;4.840;2023-03-01T13:02:47;10.90;21.60
77039;DHT22;65970;50.476;4.840;2023-03-01T13:08:03;11.00;20.00
77039;DHT22;65970;50.476;4.840;2023-03-01T13:13:24;11.10;19.60
77039;DHT22;65970;50.476;4.840;2023-03-01T13:18:28;11.10;18.30
77039;DHT22;65970;50.476;4.840;2023-03-01T13:23:33;11.10;18.50
77039;DHT22;65970;50.476;4.840;2023-03-01T13:34:01;11.00;17.90
77039;DHT22;65970;50.476;4.840;2023-03-01T13:39:29;10.90;18.30
77039;DHT22;65970;50.476;4.840;2023-03-01T13:44:39;10.80;18.70
77039;DHT22;65970;50.476;4.840;2023-03-01T13:49:47;10.70;18.50
77039;DHT22;65970;50.476;4.840;2023-03-01T13:54:48;10.50;18.10
77039;DHT22;65970;50.476;4.840;2023-03-01T13:59:48;10.30;17.70
77039;DHT22;65970;50.476;4.840;2023-03-01T14:04:59;10.20;17.80
77039;DHT22;65970;50.476;4.840;2023-03-01T14:10:03;10.10;17.50
77039;DHT22;65970;50.476;4.840;2023-03-01T14:15:35;10.00;18.10
77039;DHT22;65970;50.476;4.840;2023-03-01T14:20:42;9.90;17.20
77039;DHT22;65970;50.476;4.840;2023-03-01T14:25:52;9.90;17.00
77039;DHT22;65970;50.476;4.840;2023-03-01T14:30:56;9.70;18.10
77039;DHT22;65970;50.476;4.840;2023-03-01T14:36:05;9.60;15.40
77039;DHT22;65970;50.476;4.840;2023-03-01T14:41:21;9.40;17.40
77039;DHT22;65970;50.476;4.840;2023-03-01T14:46:43;9.20;17.80
77039;DHT22;65970;50.476;4.840;2023-03-01T14:51:58;9.20;18.20
77039;DHT22;65970;50.476;4.840;2023-03-01T14:57:01;9.20;18.20
77039;DHT22;65970;50.476;4.840;2023-03-01T15:02:02;9.00;17.90
77039;DHT22;65970;50.476;4.840;2023-03-01T15:07:03;8.90;17.60
77039;DHT22;65970;50.476;4.840;2023-03-01T15:17:32;8.60;18.70
77039;DHT22;65970;50.476;4.840;2023-03-01T15:22:35;8.30;19.10
77039;DHT22;65970;50.476;4.840;2023-03-01T15:27:35;8.30;19.40
77039;DHT22;65970;50.476;4.840;2023-03-01T15:32:36;8.20;19.80
77039;DHT22;65970;50.476;4.840;2023-03-01T15:37:48;8.10;19.40
77039;DHT22;65970;50.476;4.840;2023-03-01T15:42:49;8.00;18.90
77039;DHT22;65970;50.476;4.840;2023-03-01T15:47:51;7.80;19.70
77039;DHT22;65970;50.476;4.840;2023-03-01T15:52:53;7.80;20.30
77039;DHT22;65970;50.476;4.840;2023-03-01T15:58:04;7.60;20.60
77039;DHT22;65970;50.476;4.840;2023-03-01T16:03:06;7.50;20.80
77039;DHT22;65970;50.476;4.840;2023-03-01T16:08:06;7.40;20.80
77039;DHT22;65970;50.476;4.840;2023-03-01T16:13:08;7.30;21.40
77039;DHT22;65970;50.476;4.840;2023-03-01T16:18:08;7.20;21.80
77039;DHT22;65970;50.476;4.840;2023-03-01T16:23:10;7.10;21.70
77039;DHT22;65970;50.476;4.840;2023-03-01T16:28:11;7.00;22.20
77039;DHT22;65970;50.476;4.840;2023-03-01T16:33:12;7.00;22.70
77039;DHT22;65970;50.476;4.840;2023-03-01T16:38:12;7.00;22.90
77039;DHT22;65970;50.476;4.840;2023-03-01T16:43:13;6.90;23.60
77039;DHT22;65970;50.476;4.840;2023-03-01T16:48:14;6.80;23.40
77039;DHT22;65970;50.476;4.840;2023-03-01T16:53:14;6.70;24.00
77039;DHT22;65970;50.476;4.840;2023-03-01T16:58:15;6.60;24.60
77039;DHT22;65970;50.476;4.840;2023-03-01T17:03:15;6.60;23.90
77039;DHT22;65970;50.476;4.840;2023-03-01T17:08:16;6.60;24.80
77039;DHT22;65970;50.476;4.840;2023-03-01T17:13:16;6.50;24.60
77039;DHT22;65970;50.476;4.840;2023-03-01T17:18:17;6.40;25.00
77039;DHT22;65970;50.476;4.840;2023-03-01T17:23:17;6.40;25.10
77039;DHT22;65970;50.476;4.840;2023-03-01T17:28:18;6.30;25.70
77039;DHT22;65970;50.476;4.840;2023-03-01T17:33:19;6.20;25.80
77039;DHT22;65970;50.476;4.840;2023-03-01T17:38:19;6.20;26.40
77039;DHT22;65970;50.476;4.840;2023-03-01T17:43:20;6.10;26.20
77039;DHT22;65970;50.476;4.840;2023-03-01T17:48:22;6.00;26.20
77039;DHT22;65970;50.476;4.840;2023-03-01T17:53:23;6.00;26.70
77039;DHT22;65970;50.476;4.840;2023-03-01T17:58:23;5.90;27.30
77039;DHT22;65970;50.476;4.840;2023-03-01T18:03:24;5.90;26.60
77039;DHT22;65970;50.476;4.840;2023-03-01T18:08:35;5.80;27.40
77039;DHT22;65970;50.476;4.840;2023-03-01T18:13:36;5.80;27.30
77039;DHT22;65970;50.476;4.840;2023-03-01T18:18:37;5.80;27.20
77039;DHT22;65970;50.476;4.840;2023-03-01T18:23:38;5.70;28.30
77039;DHT22;65970;50.476;4.840;2023-03-01T18:28:40;5.60;26.60
77039;DHT22;65970;50.476;4.840;2023-03-01T18:33:40;5.60;27.90
77039;DHT22;65970;50.476;4.840;2023-03-01T18:38:43;5.50;26.70
77039;DHT22;65970;50.476;4.840;2023-03-01T18:43:44;5.40;27.00
77039;DHT22;65970;50.476;4.840;2023-03-01T19:35:18;5.00;28.00
77039;DHT22;65970;50.476;4.840;2023-03-01T19:40:19;5.00;29.30
77039;DHT22;65970;50.476;4.840;2023-03-01T19:45:20;5.00;29.80
77039;DHT22;65970;50.476;4.840;2023-03-01T19:50:23;4.90;29.70
77039;DHT22;65970;50.476;4.840;2023-03-01T19:55:26;4.90;29.20
77039;DHT22;65970;50.476;4.840;2023-03-01T20:00:27;4.80;30.00
77039;DHT22;65970;50.476;4.840;2023-03-01T20:05:32;4.80;30.00
77039;DHT22;65970;50.476;4.840;2023-03-01T20:20:55;4.60;28.70
77039;DHT22;65970;50.476;4.840;2023-03-01T20:26:07;4.60;27.80
77039;DHT22;65970;50.476;4.840;2023-03-01T20:31:11;4.60;29.60
77039;DHT22;65970;50.476;4.840;2023-03-01T20:36:12;4.60;29.30
77039;DHT22;65970;50.476;4.840;2023-03-01T20:41:13;4.50;29.20
77039;DHT22;65970;50.476;4.840;2023-03-01T20:46:13;4.50;29.50
